createdAt,value
2023-01-17T00:00:43.198Z,1.83
2023-01-17T00:03:12.076Z,1.83
2023-01-17T00:05:58.731Z,1.86
2023-01-17T00:08:44.047Z,1.91
2023-01-17T00:11:11.972Z,1.90
2023-01-17T00:13:39.487Z,1.86
2023-01-17T00:16:07.546Z,1.85
2023-01-17T00:18:36.615Z,1.86
2023-01-17T00:21:18.171Z,1.79
2023-01-17T00:24:03.444Z,1.82
2023-01-17T00:26:32.289Z,1.82
2023-01-17T00:28:58.736Z,1.81
2023-01-17T00:31:25.233Z,1.75
2023-01-17T00:33:53.201Z,1.76
2023-01-17T00:36:19.660Z,1.78
2023-01-17T00:38:46.135Z,1.82
2023-01-17T00:41:14.611Z,1.78
2023-01-17T00:44:00.120Z,1.79
2023-01-17T00:46:45.906Z,1.76
2023-01-17T00:49:32.381Z,1.76
2023-01-17T00:52:17.777Z,1.76
2023-01-17T00:55:03.064Z,1.75
2023-01-17T00:57:49.082Z,1.74
2023-01-17T01:00:36.065Z,1.70
2023-01-17T01:03:27.427Z,1.63
2023-01-17T01:06:13.781Z,1.62
2023-01-17T01:08:59.294Z,1.63
2023-01-17T01:11:44.810Z,1.59
2023-01-17T01:14:30.204Z,1.55
2023-01-17T01:17:15.645Z,1.49
2023-01-17T01:20:01.121Z,1.52
2023-01-17T01:22:48.081Z,1.41
2023-01-17T01:25:33.453Z,1.39
2023-01-17T01:28:22.857Z,1.33
2023-01-17T01:31:08.329Z,1.33
2023-01-17T01:33:36.241Z,1.32
2023-01-17T01:36:03.923Z,1.33
2023-01-17T01:38:32.932Z,1.32
2023-01-17T01:41:00.485Z,1.32
2023-01-17T01:43:43.342Z,1.28
2023-01-17T01:46:12.847Z,1.20
2023-01-17T01:48:43.475Z,0.99
2023-01-17T01:51:13.450Z,0.87
2023-01-17T01:53:46.683Z,0.74
2023-01-17T01:56:15.307Z,0.64
2023-01-17T01:58:45.457Z,0.55
2023-01-17T02:01:13.150Z,0.56
2023-01-17T02:03:42.014Z,0.52
2023-01-17T02:06:18.281Z,0.47
2023-01-17T02:08:47.312Z,0.38
2023-01-17T02:11:15.015Z,0.29
2023-01-17T02:13:42.862Z,0.19
2023-01-17T02:16:17.224Z,0.26
2023-01-17T02:18:49.905Z,0.21
2023-01-17T02:21:24.134Z,0.22
2023-01-17T02:24:33.844Z,0.23
2023-01-17T02:27:05.560Z,0.26
2023-01-17T02:30:05.656Z,0.31
2023-01-17T02:32:41.486Z,0.39
2023-01-17T02:35:15.278Z,0.43
2023-01-17T02:37:49.856Z,0.51
2023-01-17T02:40:20.988Z,0.56
2023-01-17T02:42:56.194Z,0.62
2023-01-17T02:45:23.857Z,0.62
2023-01-17T02:47:52.724Z,0.67
2023-01-17T02:50:22.329Z,0.63
2023-01-17T02:52:57.683Z,0.70
2023-01-17T02:55:36.724Z,0.74
2023-01-17T02:58:20.286Z,0.76
2023-01-17T03:00:56.376Z,0.81
2023-01-17T03:03:28.698Z,0.82
2023-01-17T03:06:00.583Z,0.78
2023-01-17T03:08:28.860Z,0.78
2023-01-17T03:10:56.493Z,0.81
2023-01-17T03:13:24.107Z,0.82
2023-01-17T03:15:51.881Z,0.86
2023-01-17T03:18:19.436Z,0.91
2023-01-17T03:20:48.317Z,0.95
2023-01-17T03:23:15.862Z,0.96
2023-01-17T03:25:43.400Z,0.95
2023-01-17T03:28:10.909Z,0.96
2023-01-17T03:30:38.459Z,0.97
2023-01-17T03:33:06.050Z,0.95
2023-01-17T03:35:33.666Z,0.94
2023-01-17T03:38:02.540Z,0.96
2023-01-17T03:40:30.047Z,0.98
2023-01-17T03:42:57.655Z,0.95
2023-01-17T03:45:25.185Z,0.94
2023-01-17T03:47:53.771Z,0.90
2023-01-17T03:50:21.757Z,0.89
2023-01-17T03:52:49.307Z,0.86
2023-01-17T03:55:18.443Z,0.84
2023-01-17T03:57:45.960Z,0.88
2023-01-17T04:00:14.594Z,0.84
2023-01-17T04:02:42.154Z,0.81
2023-01-17T04:05:10.325Z,0.86
2023-01-17T04:07:37.973Z,0.80
2023-01-17T04:10:06.687Z,0.77
2023-01-17T04:12:35.553Z,0.72
2023-01-17T04:15:03.058Z,0.63
2023-01-17T04:17:30.762Z,0.64
2023-01-17T04:19:58.410Z,0.61
2023-01-17T04:22:25.956Z,0.52
2023-01-17T04:24:53.550Z,0.49
2023-01-17T04:27:21.069Z,0.47
2023-01-17T04:29:49.895Z,0.28
2023-01-17T04:32:17.441Z,0.13
2023-01-17T04:34:44.938Z,0.05
2023-01-17T04:37:12.546Z,0.09
2023-01-17T04:39:40.068Z,0.14
2023-01-17T04:42:07.568Z,0.20
2023-01-17T04:44:35.101Z,0.21
2023-01-17T04:47:03.977Z,0.27
2023-01-17T04:49:31.479Z,0.23
2023-01-17T04:51:59.566Z,0.16
2023-01-17T04:54:27.308Z,0.21
2023-01-17T04:56:54.850Z,0.14
2023-01-17T04:59:22.435Z,0.11
2023-01-17T05:01:50.135Z,0.09
2023-01-17T05:04:19.298Z,0.10
2023-01-17T05:06:46.839Z,0.12
2023-01-17T05:09:14.338Z,0.18
2023-01-17T05:11:41.885Z,0.21
2023-01-17T05:14:10.529Z,0.12
2023-01-17T05:16:38.058Z,0.13
2023-01-17T05:19:05.604Z,0.09
2023-01-17T05:21:34.501Z,0.11
2023-01-17T05:24:02.112Z,0.07
2023-01-17T05:26:29.647Z,0.09
2023-01-17T05:28:57.185Z,0.10
2023-01-17T05:31:24.855Z,0.07
2023-01-17T05:33:52.437Z,0.06
2023-01-17T05:36:21.230Z,0.05
2023-01-17T05:38:50.171Z,-0.01
2023-01-17T05:41:17.731Z,0.00
2023-01-17T05:43:45.257Z,0.01
2023-01-17T05:46:12.935Z,-0.06
2023-01-17T05:48:40.464Z,-0.16
2023-01-17T05:51:08.048Z,-0.18
2023-01-17T05:53:35.571Z,-0.29
2023-01-17T05:56:04.481Z,-0.45
2023-01-17T05:58:32.067Z,-0.61
2023-01-17T06:00:59.607Z,-0.78
2023-01-17T06:03:27.482Z,-0.94
2023-01-17T06:05:55.053Z,-0.96
2023-01-17T06:08:23.423Z,-1.04
2023-01-17T06:10:51.008Z,-1.09
2023-01-17T06:13:23.673Z,-1.15
2023-01-17T06:15:51.387Z,-1.28
2023-01-17T06:18:19.550Z,-1.34
2023-01-17T06:20:47.083Z,-1.41
2023-01-17T06:23:15.703Z,-1.41
2023-01-17T06:25:44.584Z,-1.61
2023-01-17T06:28:13.645Z,-1.75
2023-01-17T06:30:43.844Z,-1.92
2023-01-17T06:33:11.788Z,-1.88
2023-01-17T06:35:40.853Z,-1.95
2023-01-17T06:38:09.912Z,-1.89
2023-01-17T06:40:37.520Z,-1.94
2023-01-17T06:43:05.957Z,-1.99
2023-01-17T06:45:35.124Z,-2.04
2023-01-17T06:48:05.523Z,-2.06
2023-01-17T06:50:33.725Z,-2.05
2023-01-17T06:53:02.869Z,-2.04
2023-01-17T06:55:31.402Z,-2.05
2023-01-17T06:57:59.563Z,-2.10
2023-01-17T07:00:27.790Z,-2.04
2023-01-17T07:02:56.070Z,-2.06
2023-01-17T07:05:24.940Z,-2.04
2023-01-17T07:07:53.619Z,-2.09
2023-01-17T07:10:22.000Z,-2.10
2023-01-17T07:12:49.558Z,-2.14
2023-01-17T07:15:17.134Z,-2.16
2023-01-17T07:17:45.071Z,-2.21
2023-01-17T07:20:13.488Z,-2.21
2023-01-17T07:22:45.568Z,-2.33
2023-01-17T07:25:13.241Z,-2.35
2023-01-17T07:27:40.810Z,-2.35
2023-01-17T07:30:10.072Z,-2.30
2023-01-17T07:32:37.845Z,-2.40
2023-01-17T07:35:06.055Z,-2.44
2023-01-17T07:37:33.798Z,-2.41
2023-01-17T07:40:04.318Z,-2.42
2023-01-17T07:42:31.838Z,-2.29
2023-01-17T07:45:00.605Z,-2.26
2023-01-17T07:47:28.137Z,-2.21
2023-01-17T07:49:55.817Z,-2.14
2023-01-17T07:52:23.629Z,-2.08
2023-01-17T07:54:51.179Z,-1.95
2023-01-17T07:57:20.075Z,-1.84
2023-01-17T07:59:47.616Z,-1.73
2023-01-17T08:02:18.652Z,-1.76
2023-01-17T08:04:46.674Z,-1.78
2023-01-17T08:07:14.711Z,-1.82
2023-01-17T08:09:42.649Z,-1.86
2023-01-17T08:12:10.584Z,-1.87
2023-01-17T08:14:39.468Z,-1.88
2023-01-17T08:17:07.131Z,-1.88
2023-01-17T08:19:34.761Z,-1.82
2023-01-17T08:22:02.360Z,-1.76
2023-01-17T08:24:29.945Z,-1.75
2023-01-17T08:26:57.496Z,-1.59
2023-01-17T08:29:25.498Z,-1.36
2023-01-17T08:31:54.611Z,-1.18
2023-01-17T08:34:22.403Z,-0.93
2023-01-17T08:36:49.961Z,-0.68
2023-01-17T08:39:17.735Z,-0.45
2023-01-17T08:41:45.300Z,-0.42
2023-01-17T08:44:13.913Z,-0.22
2023-01-17T08:46:44.038Z,-0.16
2023-01-17T08:49:13.398Z,-0.18
2023-01-17T08:51:41.444Z,0.03
2023-01-17T08:54:12.838Z,0.13
2023-01-17T08:56:40.463Z,0.25
2023-01-17T08:59:08.002Z,0.43
2023-01-17T09:01:40.564Z,0.67
2023-01-17T09:04:08.503Z,0.96
2023-01-17T09:06:39.373Z,0.91
2023-01-17T09:09:07.377Z,0.77
2023-01-17T09:11:35.284Z,0.79
2023-01-17T09:14:02.813Z,0.84
2023-01-17T09:16:30.448Z,0.80
2023-01-17T09:18:59.251Z,0.84
2023-01-17T09:21:27.680Z,1.01
2023-01-17T09:23:56.849Z,1.08
2023-01-17T09:26:26.618Z,1.40
2023-01-17T09:28:54.251Z,1.64
2023-01-17T09:31:23.546Z,1.99
2023-01-17T09:33:52.532Z,2.07
2023-01-17T09:36:20.583Z,2.05
2023-01-17T09:38:48.239Z,2.25
2023-01-17T09:41:22.987Z,2.17
2023-01-17T09:43:52.852Z,2.00
2023-01-17T09:46:23.799Z,1.98
2023-01-17T09:48:54.985Z,1.97
2023-01-17T09:51:24.231Z,1.85
2023-01-17T09:53:52.270Z,1.58
2023-01-17T09:56:27.821Z,1.68
2023-01-17T09:59:07.247Z,1.73
2023-01-17T10:01:40.261Z,1.37
2023-01-17T10:04:19.935Z,1.15
2023-01-17T10:07:00.926Z,1.00
2023-01-17T10:09:41.568Z,0.91
2023-01-17T10:12:21.341Z,0.95
2023-01-17T10:15:03.198Z,0.98
2023-01-17T10:17:39.803Z,0.94
2023-01-17T10:20:20.782Z,1.04
2023-01-17T10:23:00.628Z,1.50
2023-01-17T10:25:44.174Z,1.51
2023-01-17T10:28:17.449Z,1.93
2023-01-17T10:30:49.854Z,2.01
2023-01-17T10:33:21.179Z,2.06
2023-01-17T10:35:56.967Z,2.15
2023-01-17T10:38:30.134Z,2.48
2023-01-17T10:41:02.428Z,2.79
2023-01-17T10:43:40.272Z,3.34
2023-01-17T10:46:16.384Z,3.55
2023-01-17T10:48:45.936Z,3.90
2023-01-17T10:51:22.927Z,3.16
2023-01-17T10:54:01.790Z,3.53
2023-01-17T10:56:30.888Z,3.70
2023-01-17T10:59:09.762Z,4.02
2023-01-17T11:01:37.523Z,4.12
2023-01-17T11:04:05.098Z,4.44
2023-01-17T11:06:33.169Z,4.75
2023-01-17T11:09:02.218Z,4.88
2023-01-17T11:11:31.880Z,4.64
2023-01-17T11:14:02.266Z,4.71
2023-01-17T11:16:31.350Z,4.72
2023-01-17T11:19:08.453Z,4.93
2023-01-17T11:21:38.160Z,4.78
2023-01-17T11:24:11.848Z,4.45
2023-01-17T11:26:47.504Z,4.34
2023-01-17T11:29:24.514Z,4.33
2023-01-17T11:31:52.072Z,3.85
2023-01-17T11:34:23.841Z,4.09
2023-01-17T11:37:08.696Z,3.78
2023-01-17T11:39:36.445Z,3.53
2023-01-17T11:42:07.003Z,3.45
2023-01-17T11:44:36.732Z,3.34
2023-01-17T11:47:17.005Z,3.38
2023-01-17T11:49:46.616Z,2.95
2023-01-17T11:52:20.090Z,2.60
2023-01-17T11:54:48.287Z,2.49
2023-01-17T11:57:21.597Z,2.29
2023-01-17T11:59:52.525Z,2.02
2023-01-17T12:02:46.974Z,2.06
2023-01-17T12:05:27.816Z,2.10
2023-01-17T12:08:02.368Z,2.14
2023-01-17T12:10:34.505Z,2.50
2023-01-17T12:13:26.495Z,2.80
2023-01-17T12:16:22.285Z,3.10
2023-01-17T12:18:55.159Z,3.01
2023-01-17T12:21:26.954Z,2.85
2023-01-17T12:24:01.603Z,3.11
2023-01-17T12:26:35.063Z,3.35
2023-01-17T12:29:37.270Z,3.55
2023-01-17T12:32:30.050Z,3.70
2023-01-17T12:35:01.874Z,3.50
2023-01-17T12:37:34.477Z,3.94
2023-01-17T12:40:06.229Z,3.88
2023-01-17T12:42:36.218Z,3.70
2023-01-17T12:45:06.185Z,3.58
2023-01-17T12:47:38.541Z,3.58
2023-01-17T12:50:13.250Z,3.49
2023-01-17T12:52:49.092Z,3.67
2023-01-17T12:55:19.206Z,3.67
2023-01-17T12:57:50.884Z,3.65
2023-01-17T13:00:22.969Z,3.56
2023-01-17T13:02:55.217Z,3.57
2023-01-17T13:05:26.183Z,3.50
2023-01-17T13:07:57.803Z,3.44
2023-01-17T13:10:31.120Z,3.45
2023-01-17T13:13:02.883Z,3.27
2023-01-17T13:15:37.478Z,3.30
2023-01-17T13:18:10.467Z,3.17
2023-01-17T13:20:49.811Z,3.16
2023-01-17T13:23:24.729Z,3.30
2023-01-17T13:25:52.420Z,3.24
2023-01-17T13:28:28.604Z,3.21
2023-01-17T13:31:15.482Z,3.12
2023-01-17T13:33:56.623Z,3.09
2023-01-17T13:36:35.569Z,3.11
2023-01-17T13:39:33.150Z,3.15
2023-01-17T13:42:11.413Z,3.09
2023-01-17T13:44:38.947Z,2.96
2023-01-17T13:47:08.112Z,2.68
2023-01-17T13:49:45.480Z,2.62
2023-01-17T13:52:33.174Z,2.52
2023-01-17T13:55:02.797Z,2.59
2023-01-17T13:57:41.883Z,2.69
2023-01-17T14:00:43.053Z,2.72
2023-01-17T14:03:11.746Z,2.72
2023-01-17T14:05:49.177Z,2.68
2023-01-17T14:08:17.969Z,2.65
2023-01-17T14:10:47.839Z,2.62
2023-01-17T14:13:33.680Z,2.58
2023-01-17T14:16:01.578Z,2.62
2023-01-17T14:18:34.385Z,2.69
2023-01-17T14:21:12.192Z,2.62
2023-01-17T14:23:51.824Z,2.62
2023-01-17T14:26:28.086Z,2.64
2023-01-17T14:28:56.789Z,2.59
2023-01-17T14:31:25.221Z,2.59
2023-01-17T14:33:54.149Z,2.62
2023-01-17T14:36:29.498Z,2.49
2023-01-17T14:38:57.338Z,2.38
2023-01-17T14:41:26.778Z,2.27
2023-01-17T14:43:54.953Z,2.21
2023-01-17T14:46:25.804Z,2.09
2023-01-17T14:49:00.768Z,1.97
2023-01-17T14:51:29.681Z,1.86
2023-01-17T14:53:58.754Z,1.64
2023-01-17T14:56:27.289Z,1.61
2023-01-17T14:59:14.338Z,1.48
2023-01-17T15:01:42.632Z,1.36
2023-01-17T15:04:22.574Z,1.19
2023-01-17T15:06:51.820Z,1.07
2023-01-17T15:09:20.905Z,1.00
2023-01-17T15:11:50.066Z,0.92
2023-01-17T15:14:21.024Z,0.84
2023-01-17T15:16:52.179Z,0.78
2023-01-17T15:19:20.488Z,0.76
2023-01-17T15:21:50.539Z,0.74
2023-01-17T15:24:21.075Z,0.72
2023-01-17T15:26:49.111Z,0.77
2023-01-17T15:29:22.866Z,0.72
2023-01-17T15:31:52.512Z,0.68
2023-01-17T15:34:26.422Z,0.60
2023-01-17T15:36:56.861Z,0.49
2023-01-17T15:39:27.753Z,0.47
2023-01-17T15:41:56.404Z,0.40
2023-01-17T15:44:33.419Z,0.35
2023-01-17T15:47:26.925Z,0.24
2023-01-17T15:49:54.589Z,0.14
2023-01-17T15:52:22.393Z,0.05
2023-01-17T15:54:53.407Z,-0.06
2023-01-17T15:57:24.832Z,-0.19
2023-01-17T15:59:55.493Z,-0.23
2023-01-17T16:02:43.627Z,-0.31
2023-01-17T16:05:33.049Z,-0.41
2023-01-17T16:08:19.188Z,-0.49
2023-01-17T16:10:48.059Z,-0.60
2023-01-17T16:13:15.719Z,-0.73
2023-01-17T16:15:43.299Z,-0.79
2023-01-17T16:18:16.432Z,-0.83
2023-01-17T16:20:45.943Z,-0.83
2023-01-17T16:23:13.539Z,-0.88
2023-01-17T16:25:41.028Z,-0.86
2023-01-17T16:28:09.961Z,-0.80
2023-01-17T16:30:37.665Z,-0.77
2023-01-17T16:33:06.675Z,-0.74
2023-01-17T16:35:35.451Z,-0.73
2023-01-17T16:38:05.810Z,-0.67
2023-01-17T16:40:34.853Z,-0.67
2023-01-17T16:43:02.458Z,-0.61
2023-01-17T16:45:31.353Z,-0.59
2023-01-17T16:47:58.890Z,-0.56
2023-01-17T16:50:26.391Z,-0.59
2023-01-17T16:52:56.151Z,-0.61
2023-01-17T16:55:25.093Z,-0.61
2023-01-17T16:57:54.717Z,-0.62
2023-01-17T17:00:23.559Z,-0.61
2023-01-17T17:02:52.783Z,-0.67
2023-01-17T17:05:21.054Z,-0.70
2023-01-17T17:07:51.658Z,-0.82
2023-01-17T17:10:21.432Z,-0.92
2023-01-17T17:12:49.032Z,-1.05
2023-01-17T17:15:16.603Z,-1.10
2023-01-17T17:17:44.487Z,-1.12
2023-01-17T17:20:15.578Z,-1.14
2023-01-17T17:22:44.550Z,-1.19
2023-01-17T17:25:13.411Z,-1.26
2023-01-17T17:27:40.980Z,-1.32
2023-01-17T17:30:09.977Z,-1.36
2023-01-17T17:32:37.562Z,-1.37
2023-01-17T17:35:05.845Z,-1.36
2023-01-17T17:37:34.704Z,-1.35
2023-01-17T17:40:02.263Z,-1.37
2023-01-17T17:42:29.823Z,-1.41
2023-01-17T17:44:57.372Z,-1.43
2023-01-17T17:47:24.995Z,-1.39
2023-01-17T17:49:52.487Z,-1.37
2023-01-17T17:52:20.028Z,-1.32
2023-01-17T17:54:48.905Z,-1.32
2023-01-17T17:57:16.428Z,-1.32
2023-01-17T17:59:43.972Z,-1.26
2023-01-17T18:02:12.106Z,-1.31
2023-01-17T18:04:39.729Z,-1.32
2023-01-17T18:07:07.383Z,-1.33
2023-01-17T18:09:35.599Z,-1.35
2023-01-17T18:12:04.795Z,-1.42
2023-01-17T18:14:32.549Z,-1.50
2023-01-17T18:17:00.146Z,-1.50
2023-01-17T18:19:27.874Z,-1.51
2023-01-17T18:21:55.429Z,-1.48
2023-01-17T18:24:24.217Z,-1.47
2023-01-17T18:26:53.133Z,-1.51
2023-01-17T18:29:22.889Z,-1.50
2023-01-17T18:31:51.335Z,-1.50
2023-01-17T18:34:21.234Z,-1.52
2023-01-17T18:36:49.662Z,-1.46
2023-01-17T18:39:18.429Z,-1.46
2023-01-17T18:41:46.029Z,-1.43
2023-01-17T18:44:13.855Z,-1.41
2023-01-17T18:46:43.309Z,-1.38
2023-01-17T18:49:12.434Z,-1.36
2023-01-17T18:51:40.115Z,-1.34
2023-01-17T18:54:08.912Z,-1.31
2023-01-17T18:56:36.570Z,-1.26
2023-01-17T18:59:06.812Z,-1.21
2023-01-17T19:01:36.346Z,-1.21
2023-01-17T19:04:06.452Z,-1.23
2023-01-17T19:06:35.981Z,-1.27
2023-01-17T19:09:03.995Z,-1.21
2023-01-17T19:11:31.495Z,-1.25
2023-01-17T19:13:59.047Z,-1.24
2023-01-17T19:16:28.830Z,-1.25
2023-01-17T19:18:57.288Z,-1.28
2023-01-17T19:21:28.294Z,-1.29
2023-01-17T19:23:56.885Z,-1.25
2023-01-17T19:26:25.173Z,-1.27
2023-01-17T19:28:52.883Z,-1.28
2023-01-17T19:31:22.145Z,-1.30
2023-01-17T19:33:51.319Z,-1.34
2023-01-17T19:36:20.746Z,-1.30
2023-01-17T19:39:03.577Z,-1.31
2023-01-17T19:41:32.348Z,-1.28
2023-01-17T19:44:01.906Z,-1.29
2023-01-17T19:46:29.615Z,-1.28
2023-01-17T19:48:57.888Z,-1.22
2023-01-17T19:51:26.673Z,-1.26
2023-01-17T19:53:56.063Z,-1.23
2023-01-17T19:56:25.464Z,-1.21
2023-01-17T19:58:53.308Z,-1.24
2023-01-17T20:01:23.954Z,-1.27
2023-01-17T20:03:52.199Z,-1.18
2023-01-17T20:06:21.509Z,-1.15
2023-01-17T20:08:49.552Z,-1.20
2023-01-17T20:11:19.965Z,-1.14
2023-01-17T20:13:48.466Z,-1.11
2023-01-17T20:16:17.888Z,-1.17
2023-01-17T20:18:45.891Z,-1.11
2023-01-17T20:21:14.924Z,-1.09
2023-01-17T20:23:43.814Z,-1.07
2023-01-17T20:26:12.195Z,-1.05
2023-01-17T20:28:42.216Z,-1.12
2023-01-17T20:31:12.718Z,-1.00
2023-01-17T20:33:40.978Z,-0.97
2023-01-17T20:36:11.218Z,-1.00
2023-01-17T20:38:44.579Z,-0.99
2023-01-17T20:41:13.507Z,-0.96
2023-01-17T20:43:42.514Z,-0.92
2023-01-17T20:46:10.633Z,-0.92
2023-01-17T20:48:39.084Z,-0.89
2023-01-17T20:51:10.466Z,-0.82
2023-01-17T20:53:39.118Z,-0.86
2023-01-17T20:56:08.662Z,-0.83
2023-01-17T20:58:36.238Z,-0.83
2023-01-17T21:01:05.662Z,-0.78
2023-01-17T21:03:35.029Z,-0.82
2023-01-17T21:06:03.470Z,-0.85
2023-01-17T21:08:31.525Z,-0.83
2023-01-17T21:10:59.097Z,-0.73
2023-01-17T21:13:26.661Z,-0.72
2023-01-17T21:15:54.516Z,-0.77
2023-01-17T21:18:24.885Z,-0.68
2023-01-17T21:20:52.730Z,-0.76
2023-01-17T21:23:20.605Z,-0.75
2023-01-17T21:25:58.415Z,-0.72
2023-01-17T21:28:28.376Z,-0.68
2023-01-17T21:30:56.348Z,-0.71
2023-01-17T21:33:26.624Z,-0.59
2023-01-17T21:35:54.792Z,-0.62
2023-01-17T21:38:22.563Z,-0.61
2023-01-17T21:40:50.107Z,-0.65
2023-01-17T21:43:17.648Z,-0.66
2023-01-17T21:45:45.183Z,-0.69
2023-01-17T21:48:13.205Z,-0.56
2023-01-17T21:50:42.171Z,-0.64
2023-01-17T21:53:10.070Z,-0.65
2023-01-17T21:55:55.518Z,-0.72
2023-01-17T21:58:40.994Z,-0.76
2023-01-17T22:01:10.961Z,-0.84
2023-01-17T22:03:38.659Z,-0.88
2023-01-17T22:06:07.948Z,-0.89
2023-01-17T22:08:35.816Z,-0.86
2023-01-17T22:11:04.235Z,-0.89
2023-01-17T22:13:32.292Z,-0.84
2023-01-17T22:16:00.775Z,-0.86
2023-01-17T22:18:29.312Z,-0.93
2023-01-17T22:20:57.363Z,-0.83
2023-01-17T22:23:26.783Z,-0.86
2023-01-17T22:25:54.331Z,-0.80
2023-01-17T22:28:21.893Z,-0.76
2023-01-17T22:30:49.445Z,-0.70
2023-01-17T22:33:16.984Z,-0.75
2023-01-17T22:35:44.518Z,-0.67
2023-01-17T22:38:12.020Z,-0.57
2023-01-17T22:40:40.947Z,-0.66
2023-01-17T22:43:08.613Z,-0.76
2023-01-17T22:45:36.091Z,-0.65
2023-01-17T22:48:03.593Z,-0.74
2023-01-17T22:50:31.195Z,-0.71
2023-01-17T22:52:59.002Z,-0.65
2023-01-17T22:55:27.117Z,-0.63
2023-01-17T22:57:56.856Z,-0.62
2023-01-17T23:00:24.530Z,-0.64
2023-01-17T23:02:52.095Z,-0.53
2023-01-17T23:05:20.320Z,-0.60
2023-01-17T23:07:50.508Z,-0.61
2023-01-17T23:10:38.929Z,-0.58
2023-01-17T23:13:10.743Z,-0.56
2023-01-17T23:15:56.990Z,-0.53
2023-01-17T23:18:42.117Z,-0.70
2023-01-17T23:21:09.678Z,-0.80
2023-01-17T23:23:37.186Z,-0.81
2023-01-17T23:26:04.916Z,-0.71
2023-01-17T23:28:32.918Z,-0.63
2023-01-17T23:31:02.991Z,-0.71
2023-01-17T23:33:30.545Z,-0.70
2023-01-17T23:35:58.051Z,-0.69
2023-01-17T23:38:29.892Z,-0.76
2023-01-17T23:41:19.578Z,-0.65
2023-01-17T23:43:52.588Z,-0.69
2023-01-17T23:46:20.473Z,-0.61
2023-01-17T23:48:48.558Z,-0.62
2023-01-17T23:51:16.136Z,-0.86
2023-01-17T23:53:43.692Z,-0.84
2023-01-17T23:56:14.855Z,-0.78
2023-01-17T23:58:42.399Z,-0.74
